createdAt,value
2023-02-25T00:00:30.835Z,6.90
2023-02-25T00:02:58.555Z,10.57
2023-02-25T00:05:25.815Z,8.82
2023-02-25T00:07:53.112Z,8.15
2023-02-25T00:10:19.705Z,7.40
2023-02-25T00:12:46.232Z,9.50
2023-02-25T00:15:12.786Z,8.30
2023-02-25T00:17:39.355Z,6.97
2023-02-25T00:20:08.688Z,7.47
2023-02-25T00:22:36.100Z,6.63
2023-02-25T00:25:02.666Z,10.50
2023-02-25T00:27:29.218Z,7.90
2023-02-25T00:29:55.763Z,7.80
2023-02-25T00:32:23.198Z,10.00
2023-02-25T00:34:49.887Z,6.47
2023-02-25T00:37:16.455Z,6.00
2023-02-25T00:39:43.110Z,4.90
2023-02-25T00:42:15.174Z,10.60
2023-02-25T00:44:48.619Z,4.15
2023-02-25T00:47:17.154Z,8.30
2023-02-25T00:49:48.049Z,6.95
2023-02-25T00:52:15.429Z,5.63
2023-02-25T00:54:42.213Z,6.68
2023-02-25T00:57:09.057Z,6.82
2023-02-25T00:59:35.604Z,7.97
2023-02-25T01:02:02.242Z,4.72
2023-02-25T01:04:28.804Z,10.77
2023-02-25T01:06:55.460Z,9.40
2023-02-25T01:09:22.280Z,7.07
2023-02-25T01:11:49.544Z,6.90
2023-02-25T01:14:21.514Z,5.43
2023-02-25T01:16:49.154Z,9.20
2023-02-25T01:19:19.484Z,7.60
2023-02-25T01:24:22.605Z,10.73
2023-02-25T01:26:51.587Z,7.80
2023-02-25T01:29:23.366Z,8.40
2023-02-25T01:31:58.088Z,13.25
2023-02-25T01:34:25.587Z,13.75
2023-02-25T01:36:52.373Z,6.35
2023-02-25T01:39:20.460Z,7.03
2023-02-25T01:41:47.375Z,22.38
2023-02-25T01:44:34.857Z,4.18
2023-02-25T01:47:01.640Z,15.10
2023-02-25T01:49:39.699Z,6.70
2023-02-25T01:52:24.998Z,10.43
2023-02-25T01:54:55.584Z,9.13
2023-02-25T01:57:23.075Z,9.48
2023-02-25T01:59:51.742Z,5.93
2023-02-25T02:02:21.280Z,7.35
2023-02-25T02:04:51.092Z,22.92
2023-02-25T02:07:19.889Z,7.43
2023-02-25T02:09:46.766Z,3.80
2023-02-25T02:12:13.293Z,14.40
2023-02-25T02:14:41.865Z,10.63
2023-02-25T02:17:24.516Z,5.93
2023-02-25T02:19:53.759Z,10.85
2023-02-25T02:22:35.503Z,5.35
2023-02-25T02:25:29.983Z,6.18
2023-02-25T02:28:15.142Z,5.68
2023-02-25T02:31:09.915Z,4.30
2023-02-25T02:34:09.304Z,10.32
2023-02-25T02:36:49.826Z,8.60
2023-02-25T02:39:51.589Z,12.80
2023-02-25T02:42:27.505Z,13.88
2023-02-25T02:45:03.181Z,5.10
2023-02-25T02:47:51.535Z,9.50
2023-02-25T02:50:34.703Z,6.32
2023-02-25T02:53:12.883Z,5.25
2023-02-25T02:55:43.665Z,10.05
2023-02-25T02:58:32.347Z,6.63
2023-02-25T03:01:04.630Z,5.88
2023-02-25T03:03:34.012Z,8.48
2023-02-25T03:06:00.661Z,13.73
2023-02-25T03:08:29.835Z,6.28
2023-02-25T03:10:56.431Z,6.85
2023-02-25T03:13:23.061Z,5.65
2023-02-25T03:15:51.739Z,6.50
2023-02-25T03:18:29.706Z,9.85
2023-02-25T03:20:58.580Z,2.75
2023-02-25T03:23:32.681Z,11.25
2023-02-25T03:26:09.065Z,8.65
2023-02-25T03:28:36.079Z,6.03
2023-02-25T03:31:22.343Z,6.50
2023-02-25T03:34:01.545Z,5.43
2023-02-25T03:36:33.315Z,3.17
2023-02-25T03:39:07.611Z,3.83
2023-02-25T03:41:37.139Z,9.73
2023-02-25T03:44:09.411Z,6.55
2023-02-25T03:46:36.739Z,5.20
2023-02-25T03:49:05.192Z,10.60
2023-02-25T03:51:35.597Z,7.50
2023-02-25T03:54:02.353Z,4.38
2023-02-25T03:56:29.082Z,10.23
2023-02-25T03:58:55.726Z,6.43
2023-02-25T04:01:27.734Z,8.95
2023-02-25T04:03:54.279Z,5.72
2023-02-25T04:06:22.943Z,7.80
2023-02-25T04:08:50.068Z,4.28
2023-02-25T04:11:16.591Z,12.48
2023-02-25T04:13:43.154Z,5.22
2023-02-25T04:16:09.695Z,8.63
2023-02-25T04:18:36.215Z,2.92
2023-02-25T04:21:04.465Z,4.25
2023-02-25T04:23:31.031Z,4.75
2023-02-25T04:25:57.512Z,8.13
2023-02-25T04:28:24.061Z,3.80
2023-02-25T04:30:50.771Z,5.88
2023-02-25T04:33:17.406Z,8.30
2023-02-25T04:35:43.935Z,10.00
2023-02-25T04:38:10.480Z,8.65
2023-02-25T04:40:37.170Z,4.22
2023-02-25T04:43:03.667Z,8.77
2023-02-25T04:45:30.381Z,6.75
2023-02-25T04:47:57.152Z,14.05
2023-02-25T04:50:24.663Z,6.93
2023-02-25T04:52:51.218Z,7.63
2023-02-25T04:55:17.771Z,5.60
2023-02-25T04:57:44.330Z,9.18
2023-02-25T05:00:17.216Z,8.15
2023-02-25T05:02:43.726Z,4.72
2023-02-25T05:05:10.472Z,9.23
2023-02-25T05:07:37.271Z,2.90
2023-02-25T05:10:03.989Z,9.98
2023-02-25T05:12:30.533Z,2.90
2023-02-25T05:14:57.067Z,9.30
2023-02-25T05:17:23.585Z,10.40
2023-02-25T05:19:50.107Z,7.13
2023-02-25T05:22:16.631Z,8.00
2023-02-25T05:24:43.203Z,5.93
2023-02-25T05:27:09.729Z,7.97
2023-02-25T05:29:36.303Z,6.25
2023-02-25T05:32:03.375Z,8.27
2023-02-25T05:34:30.167Z,10.52
2023-02-25T05:36:56.684Z,11.60
2023-02-25T05:39:23.203Z,5.28
2023-02-25T05:41:49.692Z,6.18
2023-02-25T05:44:16.172Z,7.05
2023-02-25T05:46:42.839Z,8.85
2023-02-25T05:49:09.894Z,12.55
2023-02-25T05:51:36.457Z,9.93
2023-02-25T05:54:03.026Z,7.32
2023-02-25T05:56:32.167Z,4.13
2023-02-25T05:58:59.003Z,8.05
2023-02-25T06:01:27.295Z,9.35
2023-02-25T06:03:57.638Z,6.63
2023-02-25T06:08:53.624Z,14.60
2023-02-25T06:11:26.288Z,4.70
2023-02-25T06:13:54.642Z,9.23
2023-02-25T06:16:22.557Z,10.20
2023-02-25T06:18:49.303Z,6.70
2023-02-25T06:21:16.134Z,5.93
2023-02-25T06:23:44.129Z,14.70
2023-02-25T06:26:13.564Z,6.82
2023-02-25T06:28:40.229Z,9.73
2023-02-25T06:31:08.989Z,13.23
2023-02-25T06:33:36.042Z,8.48
2023-02-25T06:36:02.726Z,8.13
2023-02-25T06:38:29.265Z,7.55
2023-02-25T06:40:55.751Z,4.28
2023-02-25T06:43:22.296Z,7.30
2023-02-25T06:45:49.018Z,6.07
2023-02-25T06:48:24.364Z,8.05
2023-02-25T06:50:51.193Z,2.40
2023-02-25T06:53:20.349Z,5.82
2023-02-25T06:55:46.866Z,5.80
2023-02-25T06:58:15.599Z,10.63
2023-02-25T07:00:42.269Z,6.35
2023-02-25T07:03:12.370Z,10.65
2023-02-25T07:05:39.190Z,10.45
2023-02-25T07:08:05.915Z,8.07
2023-02-25T07:10:32.752Z,5.70
2023-02-25T07:12:59.468Z,7.45
2023-02-25T07:15:26.184Z,6.40
2023-02-25T07:17:52.744Z,10.55
2023-02-25T07:20:19.296Z,7.40
2023-02-25T07:22:45.852Z,8.82
2023-02-25T07:25:12.382Z,5.10
2023-02-25T07:27:44.658Z,11.25
2023-02-25T07:30:12.760Z,6.30
2023-02-25T07:32:43.241Z,13.10
2023-02-25T07:35:10.363Z,6.40
2023-02-25T07:37:37.202Z,6.57
2023-02-25T07:40:05.938Z,4.63
2023-02-25T07:42:32.526Z,8.15
2023-02-25T07:45:01.763Z,9.18
2023-02-25T07:47:28.683Z,10.20
2023-02-25T07:49:55.195Z,6.70
2023-02-25T07:52:21.688Z,5.40
2023-02-25T07:54:48.201Z,12.20
2023-02-25T07:57:14.716Z,12.05
2023-02-25T07:59:41.283Z,6.45
2023-02-25T08:02:08.138Z,8.43
2023-02-25T08:04:34.833Z,7.03
2023-02-25T08:07:01.372Z,4.65
2023-02-25T08:09:27.913Z,13.38
2023-02-25T08:11:54.433Z,9.38
2023-02-25T08:14:20.939Z,4.53
2023-02-25T08:16:48.624Z,8.57
2023-02-25T08:19:15.190Z,7.30
2023-02-25T08:21:41.694Z,10.50
2023-02-25T08:24:08.661Z,9.15
2023-02-25T08:26:35.561Z,8.38
2023-02-25T08:29:02.263Z,6.82
2023-02-25T08:31:29.288Z,6.15
2023-02-25T08:33:56.082Z,7.75
2023-02-25T08:36:25.997Z,6.80
2023-02-25T08:38:52.905Z,11.02
2023-02-25T08:41:21.308Z,8.65
2023-02-25T08:43:52.492Z,7.63
2023-02-25T08:46:21.122Z,4.60
2023-02-25T08:48:52.585Z,6.13
2023-02-25T08:51:21.048Z,9.38
2023-02-25T08:53:47.789Z,4.80
2023-02-25T08:56:15.692Z,6.43
2023-02-25T08:58:42.804Z,10.77
2023-02-25T09:01:12.118Z,7.45
2023-02-25T09:03:40.193Z,8.20
2023-02-25T09:06:06.824Z,7.47
2023-02-25T09:08:33.398Z,8.98
2023-02-25T09:11:00.093Z,8.88
2023-02-25T09:13:26.574Z,11.48
2023-02-25T09:15:57.478Z,20.10
2023-02-25T09:18:24.256Z,7.32
2023-02-25T09:20:51.298Z,6.13
2023-02-25T09:23:17.940Z,4.53
2023-02-25T09:25:44.572Z,3.80
2023-02-25T09:28:12.117Z,12.88
2023-02-25T09:30:39.297Z,12.02
2023-02-25T09:33:06.060Z,10.50
2023-02-25T09:35:32.679Z,7.15
2023-02-25T09:37:59.270Z,5.88
2023-02-25T09:40:25.983Z,4.07
2023-02-25T09:43:16.108Z,7.57
2023-02-25T09:45:42.855Z,9.85
2023-02-25T09:48:28.630Z,3.80
2023-02-25T09:51:03.063Z,5.35
2023-02-25T09:53:41.436Z,7.28
2023-02-25T09:56:08.903Z,5.88
2023-02-25T09:58:45.662Z,9.10
2023-02-25T10:01:21.572Z,7.50
2023-02-25T10:03:53.657Z,7.35
2023-02-25T10:06:33.560Z,7.60
2023-02-25T10:09:15.349Z,8.50
2023-02-25T10:11:50.617Z,4.53
2023-02-25T10:14:53.040Z,8.80
2023-02-25T10:17:36.824Z,9.00
2023-02-25T10:20:40.976Z,5.82
2023-02-25T10:23:40.269Z,6.03
2023-02-25T10:26:40.847Z,6.43
2023-02-25T10:29:24.862Z,11.27
2023-02-25T10:31:57.801Z,12.85
2023-02-25T10:34:26.870Z,4.93
2023-02-25T10:36:59.947Z,3.03
2023-02-25T10:39:28.378Z,4.78
2023-02-25T10:41:54.909Z,8.45
2023-02-25T10:44:21.521Z,12.80
2023-02-25T10:47:00.030Z,9.25
2023-02-25T10:49:28.537Z,6.72
2023-02-25T10:51:57.422Z,7.47
2023-02-25T10:54:24.437Z,6.68
2023-02-25T10:56:51.600Z,7.60
2023-02-25T10:59:26.130Z,11.18
2023-02-25T11:01:54.018Z,4.80
2023-02-25T11:04:28.747Z,5.95
2023-02-25T11:06:55.312Z,8.18
2023-02-25T11:09:21.758Z,9.50
2023-02-25T11:12:09.385Z,4.40
2023-02-25T11:14:38.957Z,6.32
2023-02-25T11:17:08.620Z,3.85
2023-02-25T11:19:39.606Z,5.65
2023-02-25T11:22:17.323Z,1.98
2023-02-25T11:24:45.281Z,3.47
2023-02-25T11:27:27.812Z,4.15
2023-02-25T11:29:59.360Z,2.83
2023-02-25T11:32:26.027Z,2.97
2023-02-25T11:34:56.724Z,3.50
2023-02-25T11:37:45.316Z,5.38
2023-02-25T11:40:40.572Z,6.97
2023-02-25T11:43:18.067Z,7.97
2023-02-25T11:45:58.040Z,5.10
2023-02-25T11:48:27.214Z,3.60
2023-02-25T11:51:39.838Z,5.60
2023-02-25T11:54:42.421Z,4.50
2023-02-25T11:57:16.268Z,6.03
2023-02-25T12:00:22.552Z,8.02
2023-02-25T12:03:03.057Z,4.05
2023-02-25T12:05:47.235Z,2.88
2023-02-25T12:08:28.656Z,8.25
2023-02-25T12:11:12.267Z,10.75
2023-02-25T12:14:11.215Z,4.47
2023-02-25T12:16:37.734Z,5.97
2023-02-25T12:19:24.685Z,4.95
2023-02-25T12:22:18.742Z,8.63
2023-02-25T12:25:04.885Z,6.32
2023-02-25T12:27:59.578Z,4.05
2023-02-25T12:30:51.103Z,6.18
2023-02-25T12:33:20.476Z,3.25
2023-02-25T12:36:15.270Z,6.20
2023-02-25T12:39:08.266Z,5.10
2023-02-25T12:41:37.528Z,6.28
2023-02-25T12:44:34.519Z,4.43
2023-02-25T12:47:15.814Z,5.15
2023-02-25T12:50:21.171Z,6.65
2023-02-25T12:55:31.755Z,2.85
2023-02-25T12:58:19.271Z,4.57
2023-02-25T13:01:03.740Z,4.03
2023-02-25T13:03:48.830Z,5.63
2023-02-25T13:06:30.239Z,3.55
2023-02-25T13:09:29.238Z,3.35
2023-02-25T13:12:32.982Z,4.28
2023-02-25T13:15:18.482Z,4.00
2023-02-25T13:18:29.957Z,2.90
2023-02-25T13:21:20.680Z,5.47
2023-02-25T13:24:13.231Z,4.18
2023-02-25T13:27:10.256Z,6.50
2023-02-25T13:29:44.384Z,4.13
2023-02-25T13:32:22.981Z,3.58
2023-02-25T13:35:11.024Z,2.75
2023-02-25T13:37:56.224Z,3.15
2023-02-25T13:40:35.471Z,3.92
2023-02-25T13:43:37.472Z,6.50
2023-02-25T13:46:27.706Z,4.32
2023-02-25T13:49:03.501Z,3.65
2023-02-25T13:54:51.816Z,3.58
2023-02-25T13:57:24.572Z,2.55
2023-02-25T14:00:09.588Z,2.13
2023-02-25T14:03:02.885Z,3.03
2023-02-25T14:06:14.968Z,3.92
2023-02-25T14:08:53.147Z,6.05
2023-02-25T14:11:43.622Z,3.35
2023-02-25T14:14:32.540Z,2.38
2023-02-25T14:17:14.968Z,4.72
2023-02-25T14:20:08.538Z,5.45
2023-02-25T14:22:51.002Z,3.97
2023-02-25T14:25:48.237Z,6.22
2023-02-25T14:28:44.624Z,3.97
2023-02-25T14:31:24.859Z,7.57
2023-02-25T14:34:28.637Z,6.00
2023-02-25T14:37:02.150Z,4.68
2023-02-25T14:39:38.814Z,5.80
2023-02-25T14:42:23.352Z,4.93
2023-02-25T14:44:55.653Z,3.60
2023-02-25T14:47:43.910Z,8.40
2023-02-25T14:50:11.084Z,9.32
2023-02-25T14:56:00.860Z,5.05
2023-02-25T14:58:55.372Z,7.15
2023-02-25T15:01:36.152Z,6.72
2023-02-25T15:04:43.420Z,5.07
2023-02-25T15:07:41.335Z,5.57
2023-02-25T15:10:32.899Z,4.18
2023-02-25T15:13:33.715Z,4.93
2023-02-25T15:16:38.243Z,6.60
2023-02-25T15:19:29.894Z,4.38
2023-02-25T15:22:20.559Z,3.72
2023-02-25T15:24:47.707Z,4.93
2023-02-25T15:27:41.924Z,3.92
2023-02-25T15:30:10.063Z,5.90
2023-02-25T15:32:53.033Z,5.18
2023-02-25T15:35:25.124Z,4.95
2023-02-25T15:37:51.595Z,4.15
2023-02-25T15:40:18.429Z,6.07
2023-02-25T15:42:55.077Z,2.42
2023-02-25T15:45:41.072Z,6.28
2023-02-25T15:48:07.600Z,4.22
2023-02-25T15:50:43.288Z,3.00
2023-02-25T15:53:19.984Z,4.15
2023-02-25T15:55:47.539Z,4.90
2023-02-25T15:58:26.041Z,3.47
2023-02-25T16:00:57.731Z,5.07
2023-02-25T16:03:33.169Z,3.03
2023-02-25T16:06:01.561Z,3.88
2023-02-25T16:08:42.640Z,5.00
2023-02-25T16:11:36.879Z,2.97
2023-02-25T16:14:12.611Z,3.08
2023-02-25T16:16:48.061Z,6.07
2023-02-25T16:19:18.428Z,3.08
2023-02-25T16:22:13.739Z,2.10
2023-02-25T16:24:46.147Z,5.55
2023-02-25T16:27:18.814Z,4.43
2023-02-25T16:29:54.232Z,3.70
2023-02-25T16:32:38.956Z,2.78
2023-02-25T16:35:23.526Z,3.35
2023-02-25T16:38:00.405Z,3.45
2023-02-25T16:40:39.440Z,6.05
2023-02-25T16:43:11.609Z,2.35
2023-02-25T16:45:44.039Z,3.22
2023-02-25T16:48:22.744Z,5.85
2023-02-25T16:50:49.725Z,3.97
2023-02-25T16:53:20.630Z,2.58
2023-02-25T16:55:47.583Z,3.38
2023-02-25T16:58:14.086Z,2.80
2023-02-25T17:00:56.696Z,3.50
2023-02-25T17:03:26.080Z,5.55
2023-02-25T17:06:03.768Z,3.75
2023-02-25T17:08:30.331Z,3.47
2023-02-25T17:10:58.900Z,3.63
2023-02-25T17:13:33.320Z,2.35
2023-02-25T17:16:01.660Z,4.03
2023-02-25T17:18:31.035Z,4.05
2023-02-25T17:21:23.758Z,5.00
2023-02-25T17:23:51.127Z,4.75
2023-02-25T17:26:19.219Z,5.72
2023-02-25T17:28:49.815Z,4.15
2023-02-25T17:31:19.696Z,7.35
2023-02-25T17:33:52.552Z,4.88
2023-02-25T17:36:27.156Z,3.05
2023-02-25T17:39:00.812Z,4.05
2023-02-25T17:41:27.923Z,2.72
2023-02-25T17:43:54.615Z,2.95
2023-02-25T17:46:35.715Z,5.95
2023-02-25T17:49:04.943Z,3.00
2023-02-25T17:51:36.864Z,5.20
2023-02-25T17:54:08.697Z,3.58
2023-02-25T17:56:36.586Z,3.45
2023-02-25T17:59:12.256Z,4.18
2023-02-25T18:01:44.668Z,5.55
2023-02-25T18:04:22.453Z,4.05
2023-02-25T18:06:49.093Z,3.55
2023-02-25T18:09:38.356Z,3.88
2023-02-25T18:12:13.443Z,5.45
2023-02-25T18:14:43.112Z,3.90
2023-02-25T18:17:29.415Z,3.33
2023-02-25T18:19:58.461Z,4.88
2023-02-25T18:22:39.785Z,2.17
2023-02-25T18:25:28.224Z,2.83
2023-02-25T18:27:54.956Z,4.05
2023-02-25T18:30:24.222Z,4.45
2023-02-25T18:32:50.951Z,5.95
2023-02-25T18:35:18.124Z,5.80
2023-02-25T18:37:46.647Z,1.83
2023-02-25T18:40:25.661Z,4.78
2023-02-25T18:42:52.158Z,3.75
2023-02-25T18:45:21.723Z,5.35
2023-02-25T18:47:48.681Z,7.75
2023-02-25T18:50:15.471Z,6.35
2023-02-25T18:52:42.468Z,2.60
2023-02-25T18:55:16.527Z,3.67
2023-02-25T18:57:43.317Z,5.15
2023-02-25T19:00:11.006Z,4.30
2023-02-25T19:03:18.684Z,3.28
2023-02-25T19:05:45.204Z,3.35
2023-02-25T19:08:14.166Z,4.50
2023-02-25T19:10:41.908Z,6.47
2023-02-25T19:13:16.309Z,6.75
2023-02-25T19:15:43.075Z,5.07
2023-02-25T19:18:12.061Z,3.40
2023-02-25T19:20:38.698Z,4.95
2023-02-25T19:23:06.933Z,3.58
2023-02-25T19:25:36.614Z,6.57
2023-02-25T19:28:04.959Z,5.45
2023-02-25T19:30:35.747Z,4.65
2023-02-25T19:33:04.985Z,4.65
2023-02-25T19:35:34.582Z,5.80
2023-02-25T19:38:01.233Z,7.85
2023-02-25T19:40:28.446Z,3.63
2023-02-25T19:42:55.580Z,9.75
2023-02-25T19:45:25.154Z,4.53
2023-02-25T19:47:53.054Z,7.72
2023-02-25T19:50:22.609Z,2.58
2023-02-25T19:52:49.359Z,7.32
2023-02-25T19:55:19.527Z,9.32
2023-02-25T19:57:48.486Z,5.63
2023-02-25T20:00:23.002Z,5.20
2023-02-25T20:02:52.003Z,6.10
2023-02-25T20:05:19.257Z,5.97
2023-02-25T20:07:48.811Z,4.13
2023-02-25T20:10:16.926Z,6.05
2023-02-25T20:12:48.330Z,5.07
2023-02-25T20:15:16.413Z,4.25
2023-02-25T20:17:45.054Z,4.90
2023-02-25T20:20:15.859Z,4.32
2023-02-25T20:22:45.440Z,5.95
2023-02-25T20:25:13.372Z,6.15
2023-02-25T20:27:40.824Z,7.38
2023-02-25T20:32:35.403Z,6.43
2023-02-25T20:35:05.458Z,9.30
2023-02-25T20:37:36.328Z,6.47
2023-02-25T20:40:09.748Z,5.95
2023-02-25T20:42:36.393Z,2.80
2023-02-25T20:45:03.900Z,5.72
2023-02-25T20:47:34.952Z,6.38
2023-02-25T20:50:02.606Z,9.52
2023-02-25T20:52:29.343Z,3.40
2023-02-25T20:54:56.007Z,4.55
2023-02-25T20:57:24.251Z,3.72
2023-02-25T20:59:51.515Z,5.88
2023-02-25T21:02:18.253Z,3.90
2023-02-25T21:04:45.524Z,9.15
2023-02-25T21:07:13.152Z,4.07
2023-02-25T21:09:40.075Z,5.75
2023-02-25T21:12:08.316Z,6.22
2023-02-25T21:14:35.218Z,7.00
2023-02-25T21:17:02.260Z,6.20
2023-02-25T21:19:28.879Z,7.45
2023-02-25T21:21:56.102Z,6.20
2023-02-25T21:24:23.166Z,5.85
2023-02-25T21:26:50.930Z,6.63
2023-02-25T21:29:17.899Z,4.68
2023-02-25T21:31:44.469Z,5.28
2023-02-25T21:34:12.051Z,7.00
2023-02-25T21:36:39.635Z,7.55
2023-02-25T21:39:06.800Z,5.45
2023-02-25T21:41:33.576Z,5.22
2023-02-25T21:44:00.176Z,10.40
2023-02-25T21:46:27.334Z,5.38
2023-02-25T21:48:55.808Z,4.78
2023-02-25T21:51:27.410Z,7.28
2023-02-25T21:53:59.431Z,3.78
2023-02-25T21:56:27.440Z,8.05
2023-02-25T21:58:56.030Z,4.40
2023-02-25T22:01:29.799Z,9.68
2023-02-25T22:03:57.054Z,9.27
2023-02-25T22:06:24.556Z,4.63
2023-02-25T22:08:52.177Z,8.70
2023-02-25T22:11:24.992Z,6.15
2023-02-25T22:13:51.587Z,5.53
2023-02-25T22:16:18.811Z,4.82
2023-02-25T22:18:45.913Z,7.18
2023-02-25T22:21:15.784Z,3.85
2023-02-25T22:23:43.637Z,2.75
2023-02-25T22:26:15.457Z,6.68
2023-02-25T22:28:43.284Z,3.55
2023-02-25T22:31:18.013Z,4.25
2023-02-25T22:33:45.324Z,7.63
2023-02-25T22:36:13.081Z,4.05
2023-02-25T22:38:41.603Z,3.92
2023-02-25T22:41:17.673Z,3.22
2023-02-25T22:43:45.103Z,6.22
2023-02-25T22:46:14.828Z,7.28
2023-02-25T22:48:43.649Z,4.45
2023-02-25T22:51:11.304Z,5.93
2023-02-25T22:53:39.530Z,6.38
2023-02-25T22:56:10.352Z,6.18
2023-02-25T22:58:38.405Z,2.83
2023-02-25T23:01:06.206Z,5.40
2023-02-25T23:03:32.719Z,3.35
2023-02-25T23:05:59.274Z,5.10
2023-02-25T23:08:26.312Z,4.07
2023-02-25T23:10:53.019Z,4.43
2023-02-25T23:13:19.588Z,7.50
2023-02-25T23:15:46.249Z,4.82
2023-02-25T23:18:14.276Z,3.10
2023-02-25T23:20:41.381Z,7.45
2023-02-25T23:23:08.451Z,3.97
2023-02-25T23:25:40.866Z,5.95
2023-02-25T23:28:08.747Z,5.63
2023-02-25T23:30:38.811Z,4.85
2023-02-25T23:33:06.234Z,4.93
2023-02-25T23:35:33.632Z,3.15
2023-02-25T23:38:00.582Z,4.35
2023-02-25T23:40:27.089Z,3.42
2023-02-25T23:42:53.659Z,3.95
2023-02-25T23:45:20.202Z,42.88
2023-02-25T23:47:46.766Z,44.13
2023-02-25T23:50:15.790Z,59.70
2023-02-25T23:52:44.496Z,54.75
2023-02-25T23:55:11.721Z,36.88
2023-02-25T23:57:38.622Z,15.57
